createdAt,value
2022-10-08T00:01:57.011Z,5.53
2022-10-08T00:04:23.903Z,6.15
2022-10-08T00:06:51.072Z,5.88
2022-10-08T00:09:17.726Z,5.43
2022-10-08T00:11:44.446Z,5.18
2022-10-08T00:14:11.101Z,6.05
2022-10-08T00:16:40.446Z,5.88
2022-10-08T00:19:13.782Z,5.90
2022-10-08T00:21:43.113Z,6.57
2022-10-08T00:24:14.006Z,6.45
2022-10-08T00:26:43.847Z,6.22
2022-10-08T00:31:40.705Z,6.10
2022-10-08T00:34:11.064Z,5.93
2022-10-08T00:36:39.284Z,6.57
2022-10-08T00:39:16.566Z,5.63
2022-10-08T00:41:45.590Z,5.65
2022-10-08T00:44:46.613Z,6.05
2022-10-08T00:47:32.214Z,6.15
2022-10-08T00:50:13.720Z,6.03
2022-10-08T00:52:55.156Z,6.45
2022-10-08T00:55:24.513Z,6.50
2022-10-08T00:57:52.396Z,6.30
2022-10-08T01:00:25.319Z,7.40
2022-10-08T01:02:53.284Z,6.78
2022-10-08T01:05:30.300Z,5.53
2022-10-08T01:08:22.131Z,6.03
2022-10-08T01:11:26.008Z,4.78
2022-10-08T01:14:20.895Z,4.95
2022-10-08T01:17:09.098Z,4.95
2022-10-08T01:19:44.763Z,5.30
2022-10-08T01:22:27.512Z,4.60
2022-10-08T01:25:20.742Z,5.45
2022-10-08T01:27:54.376Z,5.78
2022-10-08T01:30:21.276Z,5.05
2022-10-08T01:32:57.680Z,4.75
2022-10-08T01:35:30.333Z,4.40
2022-10-08T01:38:03.423Z,4.90
2022-10-08T01:40:34.569Z,4.60
2022-10-08T01:43:04.041Z,4.43
2022-10-08T01:45:35.333Z,4.50
2022-10-08T01:48:06.666Z,4.57
2022-10-08T01:50:38.537Z,4.75
2022-10-08T01:53:11.565Z,5.03
2022-10-08T01:55:46.024Z,4.97
2022-10-08T01:58:17.133Z,4.63
2022-10-08T02:00:45.411Z,4.88
2022-10-08T02:03:12.261Z,5.68
2022-10-08T02:05:44.080Z,5.35
2022-10-08T02:08:10.806Z,4.68
2022-10-08T02:10:37.671Z,5.43
2022-10-08T02:13:04.696Z,4.45
2022-10-08T02:15:37.521Z,5.43
2022-10-08T02:18:18.281Z,4.38
2022-10-08T02:20:50.525Z,4.68
2022-10-08T02:23:33.973Z,4.35
2022-10-08T02:26:03.835Z,5.82
2022-10-08T02:28:57.976Z,4.93
2022-10-08T02:31:40.796Z,4.28
2022-10-08T02:34:20.174Z,5.25
2022-10-08T02:37:01.477Z,5.25
2022-10-08T02:39:30.980Z,5.25
2022-10-08T02:42:02.624Z,4.87
2022-10-08T02:44:56.567Z,4.85
2022-10-08T02:47:27.068Z,4.55
2022-10-08T02:50:00.068Z,4.93
2022-10-08T02:52:30.229Z,4.63
2022-10-08T02:55:00.429Z,4.32
2022-10-08T02:57:40.811Z,4.55
2022-10-08T03:02:55.800Z,5.65
2022-10-08T03:05:23.000Z,4.47
2022-10-08T03:07:51.267Z,4.35
2022-10-08T03:10:19.778Z,4.75
2022-10-08T03:12:47.612Z,4.10
2022-10-08T03:15:15.126Z,5.03
2022-10-08T03:17:44.940Z,4.72
2022-10-08T03:20:12.462Z,4.40
2022-10-08T03:22:39.495Z,4.40
2022-10-08T03:25:06.428Z,4.85
2022-10-08T03:27:35.113Z,4.30
2022-10-08T03:30:02.441Z,4.20
2022-10-08T03:32:29.323Z,4.07
2022-10-08T03:34:56.125Z,4.40
2022-10-08T03:37:22.849Z,4.75
2022-10-08T03:39:49.500Z,4.30
2022-10-08T03:42:16.296Z,4.22
2022-10-08T03:44:42.940Z,4.00
2022-10-08T03:47:09.631Z,3.90
2022-10-08T03:49:36.322Z,4.35
2022-10-08T03:52:03.147Z,4.90
2022-10-08T03:54:29.978Z,4.28
2022-10-08T03:56:56.650Z,4.63
2022-10-08T03:59:23.277Z,4.10
2022-10-08T04:01:50.114Z,4.65
2022-10-08T04:04:18.128Z,4.13
2022-10-08T04:06:46.374Z,4.40
2022-10-08T04:09:13.117Z,4.75
2022-10-08T04:11:39.878Z,4.88
2022-10-08T04:14:06.651Z,4.88
2022-10-08T04:16:33.299Z,4.88
2022-10-08T04:19:00.010Z,4.38
2022-10-08T04:21:26.707Z,5.38
2022-10-08T04:23:53.366Z,4.35
2022-10-08T04:26:20.044Z,4.32
2022-10-08T04:28:48.257Z,5.07
2022-10-08T04:31:17.804Z,4.88
2022-10-08T04:33:45.796Z,4.87
2022-10-08T04:36:18.531Z,4.60
2022-10-08T04:38:46.007Z,5.13
2022-10-08T04:41:21.162Z,4.47
2022-10-08T04:43:48.102Z,5.10
2022-10-08T04:46:17.363Z,5.22
2022-10-08T04:48:49.486Z,5.10
2022-10-08T04:51:16.798Z,6.00
2022-10-08T04:53:44.087Z,4.72
2022-10-08T04:56:19.289Z,5.18
2022-10-08T04:58:46.299Z,4.82
2022-10-08T05:01:15.560Z,5.70
2022-10-08T05:03:47.509Z,5.07
2022-10-08T05:06:15.656Z,5.22
2022-10-08T05:08:42.920Z,4.75
2022-10-08T05:11:10.420Z,5.28
2022-10-08T05:13:37.447Z,5.43
2022-10-08T05:16:13.115Z,6.55
2022-10-08T05:18:41.693Z,4.97
2022-10-08T05:21:11.711Z,5.38
2022-10-08T05:23:38.990Z,5.53
2022-10-08T05:26:13.748Z,4.65
2022-10-08T05:28:40.674Z,5.20
2022-10-08T05:31:07.533Z,5.20
2022-10-08T05:33:36.257Z,5.00
2022-10-08T05:36:04.997Z,4.78
2022-10-08T05:38:34.955Z,5.75
2022-10-08T05:43:41.420Z,4.93
2022-10-08T05:46:08.196Z,5.25
2022-10-08T05:48:35.490Z,5.53
2022-10-08T05:51:10.006Z,5.38
2022-10-08T05:53:37.979Z,5.10
2022-10-08T05:56:06.677Z,5.07
2022-10-08T05:58:35.068Z,6.07
2022-10-08T06:01:03.901Z,6.60
2022-10-08T06:03:31.113Z,5.63
2022-10-08T06:06:06.725Z,4.53
2022-10-08T06:08:34.382Z,5.10
2022-10-08T06:11:01.449Z,4.57
2022-10-08T06:13:28.267Z,4.18
2022-10-08T06:16:08.910Z,4.22
2022-10-08T06:18:40.753Z,4.28
2022-10-08T06:21:10.099Z,3.38
2022-10-08T06:23:37.339Z,3.50
2022-10-08T06:26:05.878Z,3.85
2022-10-08T06:28:33.993Z,3.42
2022-10-08T06:31:01.015Z,3.70
2022-10-08T06:33:28.670Z,4.00
2022-10-08T06:35:55.733Z,3.80
2022-10-08T06:38:23.019Z,4.38
2022-10-08T06:40:49.666Z,4.20
2022-10-08T06:43:18.525Z,4.07
2022-10-08T06:45:46.698Z,3.95
2022-10-08T06:48:13.976Z,3.60
2022-10-08T06:50:41.768Z,3.90
2022-10-08T06:53:10.090Z,4.40
2022-10-08T06:55:37.284Z,6.00
2022-10-08T06:58:05.572Z,4.45
2022-10-08T07:00:32.996Z,4.38
2022-10-08T07:02:59.721Z,4.38
2022-10-08T07:05:26.428Z,3.90
2022-10-08T07:07:53.078Z,4.20
2022-10-08T07:10:19.708Z,3.90
2022-10-08T07:12:46.844Z,4.38
2022-10-08T07:15:13.770Z,4.20
2022-10-08T07:17:40.423Z,3.90
2022-10-08T07:20:07.885Z,4.22
2022-10-08T07:22:34.527Z,4.35
2022-10-08T07:25:01.546Z,4.35
2022-10-08T07:27:28.427Z,4.63
2022-10-08T07:29:55.069Z,5.63
2022-10-08T07:32:21.756Z,4.63
2022-10-08T07:34:48.392Z,5.55
2022-10-08T07:37:15.045Z,5.00
2022-10-08T07:39:41.715Z,4.78
2022-10-08T07:42:08.383Z,5.22
2022-10-08T07:44:35.073Z,4.97
2022-10-08T07:47:01.742Z,6.35
2022-10-08T07:49:28.524Z,6.15
2022-10-08T07:51:55.421Z,5.30
2022-10-08T07:54:22.497Z,4.43
2022-10-08T07:56:49.194Z,6.40
2022-10-08T07:59:16.112Z,6.93
2022-10-08T08:01:43.817Z,8.38
2022-10-08T08:04:11.890Z,5.95
2022-10-08T08:06:48.141Z,5.35
2022-10-08T08:09:16.159Z,5.82
2022-10-08T08:11:42.886Z,5.80
2022-10-08T08:14:09.898Z,5.65
2022-10-08T08:16:36.621Z,5.00
2022-10-08T08:19:04.327Z,6.30
2022-10-08T08:21:34.525Z,6.15
2022-10-08T08:24:19.258Z,5.43
2022-10-08T08:26:45.985Z,5.03
2022-10-08T08:29:18.639Z,4.65
2022-10-08T08:31:47.426Z,5.05
2022-10-08T08:34:16.446Z,6.35
2022-10-08T08:36:45.634Z,5.65
2022-10-08T08:39:17.772Z,5.88
2022-10-08T08:42:19.065Z,5.65
2022-10-08T08:44:58.985Z,6.38
2022-10-08T08:47:35.193Z,5.95
2022-10-08T08:50:15.955Z,6.50
2022-10-08T08:52:43.395Z,5.72
2022-10-08T08:55:14.835Z,7.05
2022-10-08T08:58:10.968Z,6.20
2022-10-08T09:00:42.424Z,7.25
2022-10-08T09:03:24.102Z,7.35
2022-10-08T09:05:57.207Z,6.90
2022-10-08T09:08:42.130Z,7.18
2022-10-08T09:11:17.669Z,6.40
2022-10-08T09:13:53.299Z,6.35
2022-10-08T09:16:20.031Z,5.85
2022-10-08T09:18:51.042Z,6.10
2022-10-08T09:21:18.833Z,6.05
2022-10-08T09:23:46.257Z,6.28
2022-10-08T09:26:21.934Z,5.75
2022-10-08T09:28:59.613Z,6.28
2022-10-08T09:31:36.085Z,6.68
2022-10-08T09:34:13.246Z,6.10
2022-10-08T09:36:53.104Z,6.38
2022-10-08T09:39:25.244Z,7.07
2022-10-08T09:42:06.784Z,7.13
2022-10-08T09:44:41.235Z,7.03
2022-10-08T09:47:11.948Z,7.57
2022-10-08T09:49:38.824Z,6.95
2022-10-08T09:52:07.684Z,7.30
2022-10-08T09:54:41.980Z,6.22
2022-10-08T09:57:08.805Z,6.28
2022-10-08T09:59:42.301Z,6.40
2022-10-08T10:02:35.641Z,7.18
2022-10-08T10:05:07.227Z,6.95
2022-10-08T10:07:40.471Z,6.72
2022-10-08T10:10:29.701Z,6.03
2022-10-08T10:13:18.549Z,6.25
2022-10-08T10:15:58.846Z,6.10
2022-10-08T10:21:14.303Z,6.78
2022-10-08T10:23:49.480Z,6.38
2022-10-08T10:26:23.912Z,6.88
2022-10-08T10:29:06.845Z,7.20
2022-10-08T10:31:34.988Z,6.88
2022-10-08T10:34:13.352Z,6.78
2022-10-08T10:36:50.601Z,7.00
2022-10-08T10:39:31.141Z,7.20
2022-10-08T10:42:23.528Z,7.78
2022-10-08T10:44:57.828Z,7.03
2022-10-08T10:47:31.984Z,6.90
2022-10-08T10:50:01.403Z,6.53
2022-10-08T10:52:36.872Z,6.47
2022-10-08T10:55:18.482Z,5.80
2022-10-08T10:58:12.573Z,6.45
2022-10-08T11:00:43.860Z,6.60
2022-10-08T11:03:28.607Z,6.80
2022-10-08T11:06:20.069Z,6.88
2022-10-08T11:09:03.148Z,6.78
2022-10-08T11:11:43.218Z,6.78
2022-10-08T11:14:54.941Z,5.13
2022-10-08T11:17:37.467Z,4.07
2022-10-08T11:20:26.084Z,4.15
2022-10-08T11:23:14.168Z,4.50
2022-10-08T11:26:15.365Z,4.10
2022-10-08T11:28:53.234Z,3.97
2022-10-08T11:31:20.122Z,3.20
2022-10-08T11:33:48.553Z,4.32
2022-10-08T11:36:43.441Z,4.32
2022-10-08T11:39:19.732Z,4.95
2022-10-08T11:41:57.718Z,4.25
2022-10-08T11:44:26.669Z,3.85
2022-10-08T11:46:53.300Z,4.10
2022-10-08T11:49:19.906Z,4.13
2022-10-08T11:51:55.383Z,4.60
2022-10-08T11:54:34.390Z,3.60
2022-10-08T11:57:49.230Z,3.33
2022-10-08T12:00:40.881Z,3.90
2022-10-08T12:03:31.050Z,4.35
2022-10-08T12:06:19.376Z,3.22
2022-10-08T12:08:59.931Z,3.42
2022-10-08T12:11:32.345Z,3.25
2022-10-08T12:14:11.007Z,3.30
2022-10-08T12:16:55.739Z,3.42
2022-10-08T12:19:37.499Z,3.35
2022-10-08T12:22:11.059Z,3.47
2022-10-08T12:24:37.689Z,4.57
2022-10-08T12:27:16.794Z,2.70
2022-10-08T12:29:57.147Z,2.63
2022-10-08T12:34:52.310Z,3.20
2022-10-08T12:37:44.592Z,2.10
2022-10-08T12:40:36.700Z,2.60
2022-10-08T12:43:11.356Z,3.03
2022-10-08T12:46:21.102Z,2.45
2022-10-08T12:48:53.743Z,2.80
2022-10-08T12:51:39.404Z,2.55
2022-10-08T12:54:14.999Z,2.80
2022-10-08T12:56:41.741Z,2.38
2022-10-08T12:59:11.348Z,2.13
2022-10-08T13:01:40.525Z,2.13
2022-10-08T13:04:08.883Z,2.35
2022-10-08T13:06:35.625Z,2.78
2022-10-08T13:09:28.157Z,2.55
2022-10-08T13:12:00.710Z,2.28
2022-10-08T13:14:41.354Z,2.33
2022-10-08T13:17:27.927Z,2.35
2022-10-08T13:20:15.193Z,2.15
2022-10-08T13:22:41.921Z,1.80
2022-10-08T13:25:34.719Z,2.85
2022-10-08T13:28:15.717Z,2.30
2022-10-08T13:30:46.427Z,2.00
2022-10-08T13:33:34.432Z,2.25
2022-10-08T13:36:02.267Z,2.63
2022-10-08T13:38:36.440Z,2.25
2022-10-08T13:41:06.246Z,2.20
2022-10-08T13:43:36.030Z,2.55
2022-10-08T13:46:02.739Z,2.13
2022-10-08T13:48:29.757Z,2.10
2022-10-08T13:50:57.536Z,2.70
2022-10-08T13:53:26.434Z,2.10
2022-10-08T13:55:53.392Z,2.00
2022-10-08T13:58:20.628Z,2.92
2022-10-08T14:00:48.998Z,2.60
2022-10-08T14:03:15.837Z,2.35
2022-10-08T14:05:45.721Z,2.25
2022-10-08T14:08:15.379Z,2.17
2022-10-08T14:10:42.733Z,2.40
2022-10-08T14:13:12.894Z,2.20
2022-10-08T14:15:39.938Z,2.05
2022-10-08T14:18:06.905Z,2.03
2022-10-08T14:20:35.200Z,2.15
2022-10-08T14:23:01.950Z,2.22
2022-10-08T14:25:30.619Z,2.47
2022-10-08T14:27:58.762Z,2.33
2022-10-08T14:30:26.847Z,2.10
2022-10-08T14:32:53.974Z,2.72
2022-10-08T14:35:21.634Z,2.35
2022-10-08T14:37:48.611Z,2.15
2022-10-08T14:40:19.007Z,1.67
2022-10-08T14:42:46.074Z,2.22
2022-10-08T14:45:13.459Z,1.90
2022-10-08T14:47:40.154Z,2.13
2022-10-08T14:50:07.494Z,2.20
2022-10-08T14:52:35.015Z,2.03
2022-10-08T14:55:01.688Z,1.85
2022-10-08T14:57:28.377Z,1.73
2022-10-08T14:59:55.072Z,1.55
2022-10-08T15:02:21.746Z,2.08
2022-10-08T15:04:48.458Z,1.40
2022-10-08T15:07:15.109Z,1.80
2022-10-08T15:09:41.857Z,1.60
2022-10-08T15:12:08.883Z,1.63
2022-10-08T15:14:38.157Z,1.60
2022-10-08T15:17:05.335Z,1.58
2022-10-08T15:19:32.052Z,2.42
2022-10-08T15:21:58.685Z,1.42
2022-10-08T15:24:25.677Z,1.70
2022-10-08T15:26:52.484Z,2.00
2022-10-08T15:29:19.234Z,1.40
2022-10-08T15:31:45.951Z,1.48
2022-10-08T15:34:17.383Z,1.92
2022-10-08T15:36:44.469Z,1.92
2022-10-08T15:39:14.898Z,1.83
2022-10-08T15:41:44.137Z,2.05
2022-10-08T15:44:23.740Z,1.90
2022-10-08T15:47:05.562Z,1.73
2022-10-08T15:49:37.244Z,1.70
2022-10-08T15:52:06.506Z,1.80
2022-10-08T15:54:37.617Z,1.63
2022-10-08T15:57:04.953Z,1.48
2022-10-08T15:59:32.845Z,1.83
2022-10-08T16:01:59.862Z,2.10
2022-10-08T16:04:26.843Z,1.90
2022-10-08T16:06:53.612Z,1.45
2022-10-08T16:09:22.066Z,2.65
2022-10-08T16:11:49.930Z,2.05
2022-10-08T16:14:22.089Z,1.67
2022-10-08T16:16:49.599Z,1.90
2022-10-08T16:19:21.996Z,1.77
2022-10-08T16:21:49.904Z,1.60
2022-10-08T16:24:17.177Z,1.80
2022-10-08T16:26:44.210Z,1.92
2022-10-08T16:29:13.042Z,2.00
2022-10-08T16:31:41.543Z,1.60
2022-10-08T16:34:12.876Z,2.05
2022-10-08T16:36:39.947Z,2.00
2022-10-08T16:39:08.002Z,1.67
2022-10-08T16:41:36.090Z,1.42
2022-10-08T16:44:12.886Z,1.90
2022-10-08T16:46:42.676Z,1.73
2022-10-08T16:49:12.408Z,1.55
2022-10-08T16:51:40.825Z,1.90
2022-10-08T16:54:10.527Z,2.25
2022-10-08T16:56:39.186Z,1.85
2022-10-08T16:59:15.508Z,1.85
2022-10-08T17:01:44.335Z,2.08
2022-10-08T17:04:11.733Z,2.15
2022-10-08T17:06:38.978Z,1.73
2022-10-08T17:09:06.070Z,2.05
2022-10-08T17:11:33.601Z,1.70
2022-10-08T17:14:01.046Z,1.80
2022-10-08T17:16:29.786Z,1.58
2022-10-08T17:18:58.829Z,1.88
2022-10-08T17:21:26.131Z,2.53
2022-10-08T17:23:53.119Z,2.17
2022-10-08T17:26:24.595Z,2.05
2022-10-08T17:28:52.068Z,2.10
2022-10-08T17:31:24.736Z,2.10
2022-10-08T17:33:52.205Z,2.13
2022-10-08T17:36:28.394Z,2.58
2022-10-08T17:39:00.410Z,1.77
2022-10-08T17:41:29.840Z,2.10
2022-10-08T17:43:59.090Z,2.07
2022-10-08T17:46:28.137Z,2.45
2022-10-08T17:48:55.505Z,3.13
2022-10-08T17:51:26.041Z,2.05
2022-10-08T17:53:58.074Z,2.30
2022-10-08T17:56:25.238Z,3.03
2022-10-08T17:58:52.465Z,2.50
2022-10-08T18:01:23.600Z,2.08
2022-10-08T18:03:56.295Z,2.40
2022-10-08T18:06:25.643Z,2.70
2022-10-08T18:08:56.642Z,3.15
2022-10-08T18:11:24.431Z,2.72
2022-10-08T18:13:51.182Z,2.97
2022-10-08T18:16:18.986Z,2.78
2022-10-08T18:18:46.604Z,2.40
2022-10-08T18:21:16.035Z,2.58
2022-10-08T18:23:43.100Z,3.53
2022-10-08T18:26:32.459Z,2.08
2022-10-08T18:29:01.209Z,1.90
2022-10-08T18:31:31.068Z,2.53
2022-10-08T18:34:04.067Z,2.65
2022-10-08T18:36:32.871Z,1.92
2022-10-08T18:39:04.999Z,2.17
2022-10-08T18:41:35.429Z,2.10
2022-10-08T18:44:04.598Z,2.00
2022-10-08T18:46:31.698Z,2.38
2022-10-08T18:48:58.408Z,2.22
2022-10-08T18:51:27.604Z,2.08
2022-10-08T18:53:56.533Z,4.13
2022-10-08T18:56:28.802Z,2.85
2022-10-08T18:58:57.286Z,2.67
2022-10-08T19:01:26.474Z,2.40
2022-10-08T19:03:55.201Z,2.83
2022-10-08T19:06:24.663Z,2.53
2022-10-08T19:08:51.797Z,3.40
2022-10-08T19:11:21.817Z,3.03
2022-10-08T19:13:49.241Z,2.70
2022-10-08T19:16:16.238Z,3.17
2022-10-08T19:18:44.821Z,3.08
2022-10-08T19:21:13.173Z,3.00
2022-10-08T19:23:40.213Z,3.00
2022-10-08T19:26:07.452Z,2.45
2022-10-08T19:28:39.079Z,2.92
2022-10-08T19:31:33.986Z,2.80
2022-10-08T19:34:05.952Z,3.03
2022-10-08T19:36:37.946Z,2.13
2022-10-08T19:39:08.178Z,2.30
2022-10-08T19:41:34.990Z,2.97
2022-10-08T19:44:01.813Z,2.50
2022-10-08T19:46:28.969Z,4.28
2022-10-08T19:48:58.333Z,2.72
2022-10-08T19:51:26.339Z,3.60
2022-10-08T19:53:53.672Z,3.13
2022-10-08T19:56:21.578Z,3.58
2022-10-08T19:58:50.238Z,2.70
2022-10-08T20:01:29.499Z,3.13
2022-10-08T20:03:58.728Z,3.35
2022-10-08T20:06:28.042Z,3.10
2022-10-08T20:08:56.423Z,3.08
2022-10-08T20:11:23.424Z,2.90
2022-10-08T20:13:51.786Z,2.83
2022-10-08T20:16:21.318Z,2.90
2022-10-08T20:18:49.604Z,2.60
2022-10-08T20:21:16.430Z,2.28
2022-10-08T20:23:43.261Z,2.30
2022-10-08T20:26:11.220Z,2.42
2022-10-08T20:28:37.951Z,2.30
2022-10-08T20:31:13.058Z,2.40
2022-10-08T20:33:43.093Z,3.00
2022-10-08T20:36:11.628Z,2.63
2022-10-08T20:38:38.572Z,2.55
2022-10-08T20:41:06.457Z,1.90
2022-10-08T20:43:35.174Z,2.42
2022-10-08T20:46:04.076Z,2.47
2022-10-08T20:48:35.596Z,2.47
2022-10-08T20:51:25.515Z,2.30
2022-10-08T20:53:54.578Z,2.20
2022-10-08T20:56:22.198Z,2.58
2022-10-08T20:58:49.555Z,2.85
2022-10-08T21:01:19.677Z,2.30
2022-10-08T21:03:47.601Z,2.15
2022-10-08T21:06:17.437Z,2.50
2022-10-08T21:08:46.735Z,2.78
2022-10-08T21:11:16.533Z,2.13
2022-10-08T21:13:43.839Z,3.05
2022-10-08T21:16:16.729Z,2.47
2022-10-08T21:18:44.524Z,2.70
2022-10-08T21:21:13.389Z,2.22
2022-10-08T21:23:41.002Z,1.95
2022-10-08T21:26:12.764Z,2.42
2022-10-08T21:28:40.251Z,2.78
2022-10-08T21:31:08.576Z,2.38
2022-10-08T21:33:40.446Z,3.00
2022-10-08T21:36:09.525Z,2.42
2022-10-08T21:38:36.175Z,2.10
2022-10-08T21:41:12.049Z,2.30
2022-10-08T21:43:42.431Z,2.45
2022-10-08T21:48:38.098Z,2.38
2022-10-08T21:51:09.279Z,3.08
2022-10-08T21:53:38.352Z,2.05
2022-10-08T21:56:14.215Z,2.20
2022-10-08T21:58:43.295Z,2.40
2022-10-08T22:01:39.167Z,1.73
2022-10-08T22:04:14.615Z,1.60
2022-10-08T22:06:47.135Z,2.00
2022-10-08T22:09:25.847Z,2.00
2022-10-08T22:11:53.834Z,2.13
2022-10-08T22:14:21.221Z,2.95
2022-10-08T22:16:48.215Z,2.63
2022-10-08T22:19:15.753Z,2.42
2022-10-08T22:21:42.387Z,2.10
2022-10-08T22:24:09.808Z,2.17
2022-10-08T22:26:39.486Z,1.88
2022-10-08T22:29:07.344Z,2.60
2022-10-08T22:31:34.496Z,2.17
2022-10-08T22:34:01.266Z,2.03
2022-10-08T22:36:31.044Z,3.05
2022-10-08T22:38:58.662Z,2.78
2022-10-08T22:41:28.985Z,2.58
2022-10-08T22:43:55.844Z,2.60
2022-10-08T22:46:25.144Z,2.60
2022-10-08T22:48:52.125Z,2.50
2022-10-08T22:51:21.480Z,3.00
2022-10-08T22:53:49.245Z,2.85
2022-10-08T22:56:18.653Z,2.50
2022-10-08T22:58:46.176Z,3.00
2022-10-08T23:01:16.017Z,2.55
2022-10-08T23:03:43.184Z,2.60
2022-10-08T23:06:18.745Z,3.20
2022-10-08T23:08:47.025Z,2.33
2022-10-08T23:11:16.173Z,2.30
2022-10-08T23:13:45.971Z,2.40
2022-10-08T23:16:15.194Z,2.30
2022-10-08T23:18:45.272Z,2.58
2022-10-08T23:21:16.968Z,2.67
2022-10-08T23:23:45.729Z,2.50
2022-10-08T23:26:13.485Z,2.22
2022-10-08T23:28:40.943Z,2.70
2022-10-08T23:31:10.808Z,3.25
2022-10-08T23:33:39.355Z,2.58
2022-10-08T23:36:08.186Z,2.42
2022-10-08T23:38:36.094Z,2.45
2022-10-08T23:41:04.975Z,2.58
2022-10-08T23:43:40.356Z,2.20
2022-10-08T23:46:09.090Z,2.00
2022-10-08T23:48:36.028Z,2.25
2022-10-08T23:51:04.145Z,2.45
2022-10-08T23:53:31.261Z,1.77
2022-10-08T23:55:58.109Z,1.98
2022-10-08T23:58:24.868Z,1.33
